sensor_id;sensor_type;location;lat;lon;timestamp;P1;durP1;ratioP1;P2;durP2;ratioP2
17854;SDS011;9053;53.358;6.382;2023-12-28T00:01:26;7.07;;;4.10;;
17854;SDS011;9053;53.358;6.382;2023-12-28T00:03:56;5.20;;;4.00;;
17854;SDS011;9053;53.358;6.382;2023-12-28T00:06:28;6.03;;;3.90;;
17854;SDS011;9053;53.358;6.382;2023-12-28T00:08:58;5.13;;;3.67;;
17854;SDS011;9053;53.358;6.382;2023-12-28T00:11:37;4.63;;;3.73;;
17854;SDS011;9053;53.358;6.382;2023-12-28T00:14:07;6.33;;;3.80;;
17854;SDS011;9053;53.358;6.382;2023-12-28T00:16:36;6.23;;;3.80;;
17854;SDS011;9053;53.358;6.382;2023-12-28T00:19:06;8.23;;;4.27;;
17854;SDS011;9053;53.358;6.382;2023-12-28T00:21:39;6.80;;;3.60;;
17854;SDS011;9053;53.358;6.382;2023-12-28T00:24:09;5.63;;;4.07;;
17854;SDS011;9053;53.358;6.382;2023-12-28T00:26:39;6.27;;;3.60;;
17854;SDS011;9053;53.358;6.382;2023-12-28T00:29:09;7.07;;;3.83;;
17854;SDS011;9053;53.358;6.382;2023-12-28T00:31:39;7.90;;;3.80;;
17854;SDS011;9053;53.358;6.382;2023-12-28T00:34:09;5.13;;;3.53;;
17854;SDS011;9053;53.358;6.382;2023-12-28T00:36:43;6.70;;;3.93;;
17854;SDS011;9053;53.358;6.382;2023-12-28T00:39:14;6.30;;;3.33;;
17854;SDS011;9053;53.358;6.382;2023-12-28T00:41:44;8.80;;;4.20;;
17854;SDS011;9053;53.358;6.382;2023-12-28T00:44:14;6.87;;;3.20;;
17854;SDS011;9053;53.358;6.382;2023-12-28T00:46:44;11.60;;;3.87;;
17854;SDS011;9053;53.358;6.382;2023-12-28T00:49:14;7.90;;;3.67;;
17854;SDS011;9053;53.358;6.382;2023-12-28T00:51:46;8.27;;;3.57;;
17854;SDS011;9053;53.358;6.382;2023-12-28T00:54:16;9.30;;;3.43;;
17854;SDS011;9053;53.358;6.382;2023-12-28T00:56:48;14.30;;;3.83;;
17854;SDS011;9053;53.358;6.382;2023-12-28T00:59:18;7.87;;;3.03;;
17854;SDS011;9053;53.358;6.382;2023-12-28T01:01:48;7.07;;;3.37;;
17854;SDS011;9053;53.358;6.382;2023-12-28T01:04:18;7.93;;;3.00;;
17854;SDS011;9053;53.358;6.382;2023-12-28T01:06:53;10.03;;;3.07;;
17854;SDS011;9053;53.358;6.382;2023-12-28T01:09:25;13.17;;;3.47;;
17854;SDS011;9053;53.358;6.382;2023-12-28T01:11:55;9.23;;;3.13;;
17854;SDS011;9053;53.358;6.382;2023-12-28T01:14:25;10.57;;;3.27;;
17854;SDS011;9053;53.358;6.382;2023-12-28T01:16:54;12.90;;;2.90;;
17854;SDS011;9053;53.358;6.382;2023-12-28T01:19:24;10.47;;;3.20;;
17854;SDS011;9053;53.358;6.382;2023-12-28T01:21:57;11.57;;;3.23;;
17854;SDS011;9053;53.358;6.382;2023-12-28T01:24:27;11.03;;;3.57;;
17854;SDS011;9053;53.358;6.382;2023-12-28T01:26:57;14.43;;;3.43;;
17854;SDS011;9053;53.358;6.382;2023-12-28T01:29:24;14.20;;;3.47;;
17854;SDS011;9053;53.358;6.382;2023-12-28T01:31:54;14.80;;;3.50;;
17854;SDS011;9053;53.358;6.382;2023-12-28T01:34:24;15.67;;;3.37;;
17854;SDS011;9053;53.358;6.382;2023-12-28T01:36:57;11.57;;;3.10;;
17854;SDS011;9053;53.358;6.382;2023-12-28T01:39:28;15.13;;;3.20;;
17854;SDS011;9053;53.358;6.382;2023-12-28T01:41:55;12.60;;;3.33;;
17854;SDS011;9053;53.358;6.382;2023-12-28T01:44:27;12.73;;;3.53;;
17854;SDS011;9053;53.358;6.382;2023-12-28T01:46:57;15.50;;;3.97;;
17854;SDS011;9053;53.358;6.382;2023-12-28T01:49:27;14.03;;;3.77;;
17854;SDS011;9053;53.358;6.382;2023-12-28T01:52:00;17.97;;;3.10;;
17854;SDS011;9053;53.358;6.382;2023-12-28T01:54:30;12.50;;;3.57;;
17854;SDS011;9053;53.358;6.382;2023-12-28T01:57:01;13.77;;;3.80;;
17854;SDS011;9053;53.358;6.382;2023-12-28T01:59:32;15.40;;;3.83;;
17854;SDS011;9053;53.358;6.382;2023-12-28T02:02:03;17.70;;;3.57;;
17854;SDS011;9053;53.358;6.382;2023-12-28T02:04:34;14.10;;;3.13;;
17854;SDS011;9053;53.358;6.382;2023-12-28T02:07:08;13.70;;;3.03;;
17854;SDS011;9053;53.358;6.382;2023-12-28T02:09:38;14.17;;;3.90;;
17854;SDS011;9053;53.358;6.382;2023-12-28T02:12:08;18.03;;;3.87;;
17854;SDS011;9053;53.358;6.382;2023-12-28T02:14:38;17.67;;;3.97;;
17854;SDS011;9053;53.358;6.382;2023-12-28T02:17:10;17.10;;;3.77;;
17854;SDS011;9053;53.358;6.382;2023-12-28T02:19:47;14.33;;;3.60;;
17854;SDS011;9053;53.358;6.382;2023-12-28T02:22:23;16.70;;;3.60;;
17854;SDS011;9053;53.358;6.382;2023-12-28T02:25:03;16.37;;;3.53;;
17854;SDS011;9053;53.358;6.382;2023-12-28T02:27:35;15.87;;;3.47;;
17854;SDS011;9053;53.358;6.382;2023-12-28T02:30:08;19.53;;;3.67;;
17854;SDS011;9053;53.358;6.382;2023-12-28T02:32:42;17.53;;;3.50;;
17854;SDS011;9053;53.358;6.382;2023-12-28T02:35:22;15.63;;;3.73;;
17854;SDS011;9053;53.358;6.382;2023-12-28T02:37:57;11.63;;;3.07;;
17854;SDS011;9053;53.358;6.382;2023-12-28T02:40:34;12.07;;;3.57;;
17854;SDS011;9053;53.358;6.382;2023-12-28T02:43:06;15.30;;;3.60;;
17854;SDS011;9053;53.358;6.382;2023-12-28T02:45:37;17.20;;;3.20;;
17854;SDS011;9053;53.358;6.382;2023-12-28T02:48:08;17.27;;;3.10;;
17854;SDS011;9053;53.358;6.382;2023-12-28T02:50:40;13.07;;;3.20;;
17854;SDS011;9053;53.358;6.382;2023-12-28T02:53:09;14.53;;;3.00;;
17854;SDS011;9053;53.358;6.382;2023-12-28T02:55:42;11.07;;;2.67;;
17854;SDS011;9053;53.358;6.382;2023-12-28T02:58:12;13.37;;;3.23;;
17854;SDS011;9053;53.358;6.382;2023-12-28T03:00:42;16.00;;;3.20;;
17854;SDS011;9053;53.358;6.382;2023-12-28T03:03:12;13.10;;;3.03;;
17854;SDS011;9053;53.358;6.382;2023-12-28T03:05:42;10.30;;;2.97;;
17854;SDS011;9053;53.358;6.382;2023-12-28T03:08:12;12.20;;;3.37;;
17854;SDS011;9053;53.358;6.382;2023-12-28T03:10:45;13.73;;;2.93;;
17854;SDS011;9053;53.358;6.382;2023-12-28T03:13:15;9.57;;;2.90;;
17854;SDS011;9053;53.358;6.382;2023-12-28T03:15:45;11.73;;;2.93;;
17854;SDS011;9053;53.358;6.382;2023-12-28T03:18:15;10.03;;;2.50;;
17854;SDS011;9053;53.358;6.382;2023-12-28T03:20:45;12.13;;;2.83;;
17854;SDS011;9053;53.358;6.382;2023-12-28T03:23:15;10.07;;;2.93;;
17854;SDS011;9053;53.358;6.382;2023-12-28T03:25:47;7.93;;;2.97;;
17854;SDS011;9053;53.358;6.382;2023-12-28T03:28:17;9.43;;;2.80;;
17854;SDS011;9053;53.358;6.382;2023-12-28T03:30:48;10.80;;;3.37;;
17854;SDS011;9053;53.358;6.382;2023-12-28T03:33:18;11.53;;;3.40;;
17854;SDS011;9053;53.358;6.382;2023-12-28T03:35:48;7.37;;;2.43;;
17854;SDS011;9053;53.358;6.382;2023-12-28T03:38:19;7.70;;;2.80;;
17854;SDS011;9053;53.358;6.382;2023-12-28T03:40:51;6.33;;;3.03;;
17854;SDS011;9053;53.358;6.382;2023-12-28T03:43:21;10.97;;;2.90;;
17854;SDS011;9053;53.358;6.382;2023-12-28T03:45:51;14.27;;;3.20;;
17854;SDS011;9053;53.358;6.382;2023-12-28T03:48:21;9.07;;;2.70;;
17854;SDS011;9053;53.358;6.382;2023-12-28T03:50:51;10.77;;;2.63;;
17854;SDS011;9053;53.358;6.382;2023-12-28T03:53:21;11.97;;;2.60;;
17854;SDS011;9053;53.358;6.382;2023-12-28T03:55:53;11.33;;;3.17;;
17854;SDS011;9053;53.358;6.382;2023-12-28T03:58:24;9.43;;;2.50;;
17854;SDS011;9053;53.358;6.382;2023-12-28T04:00:54;11.17;;;3.00;;
17854;SDS011;9053;53.358;6.382;2023-12-28T04:03:24;11.83;;;3.10;;
17854;SDS011;9053;53.358;6.382;2023-12-28T04:05:54;12.87;;;2.97;;
17854;SDS011;9053;53.358;6.382;2023-12-28T04:08:24;11.13;;;2.60;;
17854;SDS011;9053;53.358;6.382;2023-12-28T04:10:56;10.83;;;2.93;;
17854;SDS011;9053;53.358;6.382;2023-12-28T04:13:30;9.90;;;3.40;;
17854;SDS011;9053;53.358;6.382;2023-12-28T04:16:00;11.07;;;2.70;;
17854;SDS011;9053;53.358;6.382;2023-12-28T04:18:30;9.47;;;3.50;;
17854;SDS011;9053;53.358;6.382;2023-12-28T04:21:00;10.03;;;2.83;;
17854;SDS011;9053;53.358;6.382;2023-12-28T04:23:30;11.10;;;2.70;;
17854;SDS011;9053;53.358;6.382;2023-12-28T04:26:02;8.43;;;2.57;;
17854;SDS011;9053;53.358;6.382;2023-12-28T04:28:32;9.10;;;2.93;;
17854;SDS011;9053;53.358;6.382;2023-12-28T04:31:04;12.17;;;2.70;;
17854;SDS011;9053;53.358;6.382;2023-12-28T04:33:34;10.67;;;3.17;;
17854;SDS011;9053;53.358;6.382;2023-12-28T04:36:05;10.37;;;3.10;;
17854;SDS011;9053;53.358;6.382;2023-12-28T04:38:36;9.97;;;3.30;;
17854;SDS011;9053;53.358;6.382;2023-12-28T04:41:12;9.23;;;2.60;;
17854;SDS011;9053;53.358;6.382;2023-12-28T04:43:42;10.10;;;2.77;;
17854;SDS011;9053;53.358;6.382;2023-12-28T04:46:15;9.87;;;2.50;;
17854;SDS011;9053;53.358;6.382;2023-12-28T04:48:45;12.53;;;4.20;;
17854;SDS011;9053;53.358;6.382;2023-12-28T04:51:15;7.03;;;2.20;;
17854;SDS011;9053;53.358;6.382;2023-12-28T04:53:45;9.07;;;2.90;;
17854;SDS011;9053;53.358;6.382;2023-12-28T04:56:20;12.67;;;2.80;;
17854;SDS011;9053;53.358;6.382;2023-12-28T04:58:50;11.23;;;2.60;;
17854;SDS011;9053;53.358;6.382;2023-12-28T05:01:20;7.07;;;2.40;;
17854;SDS011;9053;53.358;6.382;2023-12-28T05:03:51;8.87;;;2.80;;
17854;SDS011;9053;53.358;6.382;2023-12-28T05:06:21;9.53;;;2.60;;
17854;SDS011;9053;53.358;6.382;2023-12-28T05:08:50;11.37;;;2.57;;
17854;SDS011;9053;53.358;6.382;2023-12-28T05:11:23;12.37;;;2.67;;
17854;SDS011;9053;53.358;6.382;2023-12-28T05:13:53;11.37;;;2.53;;
17854;SDS011;9053;53.358;6.382;2023-12-28T05:16:23;12.37;;;2.80;;
17854;SDS011;9053;53.358;6.382;2023-12-28T05:18:53;12.07;;;3.20;;
17854;SDS011;9053;53.358;6.382;2023-12-28T05:21:23;11.03;;;2.53;;
17854;SDS011;9053;53.358;6.382;2023-12-28T05:23:53;11.63;;;2.93;;
17854;SDS011;9053;53.358;6.382;2023-12-28T05:26:26;10.77;;;2.80;;
17854;SDS011;9053;53.358;6.382;2023-12-28T05:28:56;15.47;;;2.80;;
17854;SDS011;9053;53.358;6.382;2023-12-28T05:31:26;12.90;;;2.80;;
17854;SDS011;9053;53.358;6.382;2023-12-28T05:33:56;13.10;;;2.70;;
17854;SDS011;9053;53.358;6.382;2023-12-28T05:36:26;15.03;;;3.63;;
17854;SDS011;9053;53.358;6.382;2023-12-28T05:38:59;7.67;;;2.50;;
17854;SDS011;9053;53.358;6.382;2023-12-28T05:41:32;12.30;;;3.40;;
17854;SDS011;9053;53.358;6.382;2023-12-28T05:44:02;13.17;;;2.87;;
17854;SDS011;9053;53.358;6.382;2023-12-28T05:46:32;15.80;;;2.90;;
17854;SDS011;9053;53.358;6.382;2023-12-28T05:49:02;16.87;;;4.13;;
17854;SDS011;9053;53.358;6.382;2023-12-28T05:51:36;10.83;;;2.70;;
17854;SDS011;9053;53.358;6.382;2023-12-28T05:54:07;16.33;;;4.50;;
17854;SDS011;9053;53.358;6.382;2023-12-28T05:56:40;12.43;;;2.63;;
17854;SDS011;9053;53.358;6.382;2023-12-28T05:59:10;16.47;;;3.50;;
17854;SDS011;9053;53.358;6.382;2023-12-28T06:01:44;13.03;;;2.73;;
17854;SDS011;9053;53.358;6.382;2023-12-28T06:04:14;13.47;;;2.50;;
17854;SDS011;9053;53.358;6.382;2023-12-28T06:06:44;12.97;;;2.90;;
17854;SDS011;9053;53.358;6.382;2023-12-28T06:09:14;13.23;;;4.30;;
17854;SDS011;9053;53.358;6.382;2023-12-28T06:11:47;13.93;;;3.40;;
17854;SDS011;9053;53.358;6.382;2023-12-28T06:14:17;15.37;;;2.90;;
17854;SDS011;9053;53.358;6.382;2023-12-28T06:16:46;11.97;;;2.53;;
17854;SDS011;9053;53.358;6.382;2023-12-28T06:19:16;13.47;;;3.07;;
17854;SDS011;9053;53.358;6.382;2023-12-28T06:21:46;14.13;;;2.97;;
17854;SDS011;9053;53.358;6.382;2023-12-28T06:24:17;12.23;;;2.90;;
17854;SDS011;9053;53.358;6.382;2023-12-28T06:26:49;11.93;;;2.80;;
17854;SDS011;9053;53.358;6.382;2023-12-28T06:29:20;11.50;;;2.87;;
17854;SDS011;9053;53.358;6.382;2023-12-28T06:31:49;13.43;;;3.00;;
17854;SDS011;9053;53.358;6.382;2023-12-28T06:34:19;10.20;;;2.90;;
17854;SDS011;9053;53.358;6.382;2023-12-28T06:36:52;9.80;;;2.40;;
17854;SDS011;9053;53.358;6.382;2023-12-28T06:39:22;16.00;;;3.10;;
17854;SDS011;9053;53.358;6.382;2023-12-28T06:41:55;13.27;;;2.53;;
17854;SDS011;9053;53.358;6.382;2023-12-28T06:44:26;13.97;;;2.87;;
17854;SDS011;9053;53.358;6.382;2023-12-28T06:46:56;13.50;;;2.90;;
17854;SDS011;9053;53.358;6.382;2023-12-28T06:49:26;12.23;;;3.00;;
17854;SDS011;9053;53.358;6.382;2023-12-28T06:51:56;19.27;;;3.37;;
17854;SDS011;9053;53.358;6.382;2023-12-28T06:54:26;13.90;;;3.03;;
17854;SDS011;9053;53.358;6.382;2023-12-28T06:56:58;11.50;;;2.70;;
17854;SDS011;9053;53.358;6.382;2023-12-28T06:59:28;12.30;;;3.33;;
17854;SDS011;9053;53.358;6.382;2023-12-28T07:01:58;18.43;;;3.87;;
17854;SDS011;9053;53.358;6.382;2023-12-28T07:04:29;14.40;;;2.97;;
17854;SDS011;9053;53.358;6.382;2023-12-28T07:06:59;15.03;;;4.10;;
17854;SDS011;9053;53.358;6.382;2023-12-28T07:09:29;17.23;;;3.63;;
17854;SDS011;9053;53.358;6.382;2023-12-28T07:12:02;23.73;;;3.97;;
17854;SDS011;9053;53.358;6.382;2023-12-28T07:14:32;13.67;;;3.43;;
17854;SDS011;9053;53.358;6.382;2023-12-28T07:17:03;21.50;;;3.93;;
17854;SDS011;9053;53.358;6.382;2023-12-28T07:19:33;19.57;;;3.80;;
17854;SDS011;9053;53.358;6.382;2023-12-28T07:22:03;18.60;;;4.57;;
17854;SDS011;9053;53.358;6.382;2023-12-28T07:24:34;19.90;;;3.33;;
17854;SDS011;9053;53.358;6.382;2023-12-28T07:27:07;17.37;;;3.60;;
17854;SDS011;9053;53.358;6.382;2023-12-28T07:29:37;14.70;;;3.90;;
17854;SDS011;9053;53.358;6.382;2023-12-28T07:32:07;16.63;;;3.90;;
17854;SDS011;9053;53.358;6.382;2023-12-28T07:34:37;15.87;;;4.10;;
17854;SDS011;9053;53.358;6.382;2023-12-28T07:37:07;22.43;;;4.10;;
17854;SDS011;9053;53.358;6.382;2023-12-28T07:39:38;19.57;;;3.90;;
17854;SDS011;9053;53.358;6.382;2023-12-28T07:42:11;18.47;;;3.57;;
17854;SDS011;9053;53.358;6.382;2023-12-28T07:44:42;24.47;;;4.33;;
17854;SDS011;9053;53.358;6.382;2023-12-28T07:47:12;19.03;;;3.97;;
17854;SDS011;9053;53.358;6.382;2023-12-28T07:49:42;18.57;;;3.83;;
17854;SDS011;9053;53.358;6.382;2023-12-28T07:52:14;24.27;;;4.80;;
17854;SDS011;9053;53.358;6.382;2023-12-28T07:54:44;24.03;;;4.10;;
17854;SDS011;9053;53.358;6.382;2023-12-28T07:57:17;21.63;;;4.30;;
17854;SDS011;9053;53.358;6.382;2023-12-28T07:59:47;22.63;;;4.30;;
17854;SDS011;9053;53.358;6.382;2023-12-28T08:02:17;27.97;;;4.70;;
17854;SDS011;9053;53.358;6.382;2023-12-28T08:04:48;20.40;;;3.93;;
17854;SDS011;9053;53.358;6.382;2023-12-28T08:07:18;27.97;;;5.23;;
17854;SDS011;9053;53.358;6.382;2023-12-28T08:09:48;24.73;;;4.50;;
17854;SDS011;9053;53.358;6.382;2023-12-28T08:12:20;25.70;;;4.77;;
17854;SDS011;9053;53.358;6.382;2023-12-28T08:14:51;25.27;;;4.50;;
17854;SDS011;9053;53.358;6.382;2023-12-28T08:17:21;37.17;;;6.07;;
17854;SDS011;9053;53.358;6.382;2023-12-28T08:19:52;27.43;;;5.83;;
17854;SDS011;9053;53.358;6.382;2023-12-28T08:22:22;24.03;;;6.27;;
17854;SDS011;9053;53.358;6.382;2023-12-28T08:24:53;31.37;;;6.67;;
17854;SDS011;9053;53.358;6.382;2023-12-28T08:27:27;27.67;;;5.33;;
17854;SDS011;9053;53.358;6.382;2023-12-28T08:29:57;33.07;;;5.83;;
17854;SDS011;9053;53.358;6.382;2023-12-28T08:32:27;28.40;;;5.27;;
17854;SDS011;9053;53.358;6.382;2023-12-28T08:34:58;30.93;;;5.07;;
17854;SDS011;9053;53.358;6.382;2023-12-28T08:37:31;27.83;;;5.03;;
17854;SDS011;9053;53.358;6.382;2023-12-28T08:40:03;23.07;;;5.70;;
17854;SDS011;9053;53.358;6.382;2023-12-28T08:42:36;29.33;;;5.37;;
17854;SDS011;9053;53.358;6.382;2023-12-28T08:45:06;27.60;;;6.17;;
17854;SDS011;9053;53.358;6.382;2023-12-28T08:47:37;23.10;;;4.97;;
17854;SDS011;9053;53.358;6.382;2023-12-28T08:50:08;29.20;;;5.90;;
17854;SDS011;9053;53.358;6.382;2023-12-28T08:52:38;26.83;;;4.43;;
17854;SDS011;9053;53.358;6.382;2023-12-28T08:55:08;25.97;;;5.03;;
17854;SDS011;9053;53.358;6.382;2023-12-28T08:57:41;32.53;;;5.93;;
17854;SDS011;9053;53.358;6.382;2023-12-28T09:00:12;32.53;;;6.40;;
17854;SDS011;9053;53.358;6.382;2023-12-28T09:02:43;30.90;;;5.80;;
17854;SDS011;9053;53.358;6.382;2023-12-28T09:05:13;26.37;;;5.40;;
17854;SDS011;9053;53.358;6.382;2023-12-28T09:07:44;30.07;;;6.17;;
17854;SDS011;9053;53.358;6.382;2023-12-28T09:10:14;29.17;;;5.80;;
17854;SDS011;9053;53.358;6.382;2023-12-28T09:12:46;30.27;;;5.70;;
17854;SDS011;9053;53.358;6.382;2023-12-28T09:15:16;29.70;;;6.33;;
17854;SDS011;9053;53.358;6.382;2023-12-28T09:17:47;30.33;;;5.37;;
17854;SDS011;9053;53.358;6.382;2023-12-28T09:20:17;25.20;;;5.80;;
17854;SDS011;9053;53.358;6.382;2023-12-28T09:22:48;26.07;;;5.07;;
17854;SDS011;9053;53.358;6.382;2023-12-28T09:25:22;30.67;;;5.67;;
17854;SDS011;9053;53.358;6.382;2023-12-28T09:27:55;21.73;;;5.53;;
17854;SDS011;9053;53.358;6.382;2023-12-28T09:30:25;25.50;;;6.43;;
17854;SDS011;9053;53.358;6.382;2023-12-28T09:32:57;24.37;;;5.40;;
17854;SDS011;9053;53.358;6.382;2023-12-28T09:35:27;23.17;;;5.30;;
17854;SDS011;9053;53.358;6.382;2023-12-28T09:37:59;23.87;;;4.73;;
17854;SDS011;9053;53.358;6.382;2023-12-28T09:40:29;28.70;;;5.70;;
17854;SDS011;9053;53.358;6.382;2023-12-28T09:43:06;30.50;;;5.87;;
17854;SDS011;9053;53.358;6.382;2023-12-28T09:45:42;22.50;;;4.60;;
17854;SDS011;9053;53.358;6.382;2023-12-28T09:48:16;24.20;;;5.23;;
17854;SDS011;9053;53.358;6.382;2023-12-28T09:50:48;27.30;;;5.50;;
17854;SDS011;9053;53.358;6.382;2023-12-28T09:53:21;30.70;;;6.33;;
17854;SDS011;9053;53.358;6.382;2023-12-28T09:55:52;28.90;;;5.87;;
17854;SDS011;9053;53.358;6.382;2023-12-28T09:58:25;25.50;;;4.90;;
17854;SDS011;9053;53.358;6.382;2023-12-28T10:00:57;27.50;;;5.33;;
17854;SDS011;9053;53.358;6.382;2023-12-28T10:03:29;25.77;;;5.07;;
17854;SDS011;9053;53.358;6.382;2023-12-28T10:06:00;26.53;;;5.00;;
17854;SDS011;9053;53.358;6.382;2023-12-28T10:08:30;29.50;;;5.27;;
17854;SDS011;9053;53.358;6.382;2023-12-28T10:11:02;22.13;;;4.87;;
17854;SDS011;9053;53.358;6.382;2023-12-28T10:13:35;22.50;;;4.50;;
17854;SDS011;9053;53.358;6.382;2023-12-28T10:16:07;23.17;;;4.73;;
17854;SDS011;9053;53.358;6.382;2023-12-28T10:18:40;21.07;;;4.57;;
17854;SDS011;9053;53.358;6.382;2023-12-28T10:21:11;21.83;;;4.40;;
17854;SDS011;9053;53.358;6.382;2023-12-28T10:23:42;22.43;;;3.93;;
17854;SDS011;9053;53.358;6.382;2023-12-28T10:26:12;22.83;;;4.30;;
17854;SDS011;9053;53.358;6.382;2023-12-28T10:28:45;24.10;;;4.60;;
17854;SDS011;9053;53.358;6.382;2023-12-28T10:31:15;20.77;;;4.33;;
17854;SDS011;9053;53.358;6.382;2023-12-28T10:33:45;27.30;;;4.83;;
17854;SDS011;9053;53.358;6.382;2023-12-28T10:36:17;23.53;;;5.20;;
17854;SDS011;9053;53.358;6.382;2023-12-28T10:38:53;24.63;;;4.87;;
17854;SDS011;9053;53.358;6.382;2023-12-28T10:41:23;22.53;;;4.47;;
17854;SDS011;9053;53.358;6.382;2023-12-28T10:43:59;18.60;;;4.33;;
17854;SDS011;9053;53.358;6.382;2023-12-28T10:46:37;16.23;;;3.80;;
17854;SDS011;9053;53.358;6.382;2023-12-28T10:49:12;21.20;;;4.37;;
17854;SDS011;9053;53.358;6.382;2023-12-28T10:51:49;19.37;;;4.20;;
17854;SDS011;9053;53.358;6.382;2023-12-28T10:54:25;20.53;;;4.50;;
17854;SDS011;9053;53.358;6.382;2023-12-28T10:57:05;17.43;;;4.20;;
17854;SDS011;9053;53.358;6.382;2023-12-28T10:59:45;21.77;;;5.30;;
17854;SDS011;9053;53.358;6.382;2023-12-28T11:02:26;18.00;;;4.60;;
17854;SDS011;9053;53.358;6.382;2023-12-28T11:05:03;23.07;;;4.57;;
17854;SDS011;9053;53.358;6.382;2023-12-28T11:07:34;19.00;;;4.07;;
17854;SDS011;9053;53.358;6.382;2023-12-28T11:10:06;18.57;;;4.20;;
17854;SDS011;9053;53.358;6.382;2023-12-28T11:12:41;23.90;;;5.13;;
17854;SDS011;9053;53.358;6.382;2023-12-28T11:15:14;22.37;;;4.60;;
17854;SDS011;9053;53.358;6.382;2023-12-28T11:17:45;17.93;;;4.53;;
17854;SDS011;9053;53.358;6.382;2023-12-28T11:20:12;16.13;;;3.60;;
17854;SDS011;9053;53.358;6.382;2023-12-28T11:22:43;19.83;;;4.27;;
17854;SDS011;9053;53.358;6.382;2023-12-28T11:25:14;24.87;;;4.77;;
17854;SDS011;9053;53.358;6.382;2023-12-28T11:27:45;19.80;;;4.57;;
17854;SDS011;9053;53.358;6.382;2023-12-28T11:30:19;20.40;;;4.63;;
17854;SDS011;9053;53.358;6.382;2023-12-28T11:32:49;21.57;;;4.00;;
17854;SDS011;9053;53.358;6.382;2023-12-28T11:35:20;21.23;;;4.67;;
17854;SDS011;9053;53.358;6.382;2023-12-28T11:37:51;20.90;;;5.00;;
17854;SDS011;9053;53.358;6.382;2023-12-28T11:40:23;22.33;;;5.13;;
17854;SDS011;9053;53.358;6.382;2023-12-28T11:42:53;21.37;;;4.07;;
17854;SDS011;9053;53.358;6.382;2023-12-28T11:45:27;19.73;;;4.10;;
17854;SDS011;9053;53.358;6.382;2023-12-28T11:48:01;18.80;;;4.90;;
17854;SDS011;9053;53.358;6.382;2023-12-28T11:50:31;23.30;;;4.60;;
17854;SDS011;9053;53.358;6.382;2023-12-28T11:53:02;20.07;;;4.20;;
17854;SDS011;9053;53.358;6.382;2023-12-28T11:55:32;22.27;;;4.10;;
17854;SDS011;9053;53.358;6.382;2023-12-28T11:58:03;20.93;;;4.57;;
17854;SDS011;9053;53.358;6.382;2023-12-28T12:00:35;20.23;;;4.30;;
17854;SDS011;9053;53.358;6.382;2023-12-28T12:03:05;20.57;;;4.00;;
17854;SDS011;9053;53.358;6.382;2023-12-28T12:05:39;20.17;;;4.23;;
17854;SDS011;9053;53.358;6.382;2023-12-28T12:08:09;20.00;;;4.50;;
17854;SDS011;9053;53.358;6.382;2023-12-28T12:10:40;23.23;;;4.90;;
17854;SDS011;9053;53.358;6.382;2023-12-28T12:13:11;20.80;;;4.43;;
17854;SDS011;9053;53.358;6.382;2023-12-28T12:15:45;19.53;;;4.30;;
17854;SDS011;9053;53.358;6.382;2023-12-28T12:18:23;21.87;;;4.40;;
17854;SDS011;9053;53.358;6.382;2023-12-28T12:20:55;23.53;;;4.57;;
17854;SDS011;9053;53.358;6.382;2023-12-28T12:23:25;25.70;;;4.37;;
17854;SDS011;9053;53.358;6.382;2023-12-28T12:25:55;24.17;;;4.30;;
17854;SDS011;9053;53.358;6.382;2023-12-28T12:28:25;21.63;;;4.33;;
17854;SDS011;9053;53.358;6.382;2023-12-28T12:30:58;21.00;;;4.50;;
17854;SDS011;9053;53.358;6.382;2023-12-28T12:33:30;24.10;;;4.63;;
17854;SDS011;9053;53.358;6.382;2023-12-28T12:36:01;18.10;;;4.07;;
17854;SDS011;9053;53.358;6.382;2023-12-28T12:38:34;22.73;;;4.93;;
17854;SDS011;9053;53.358;6.382;2023-12-28T12:41:04;19.93;;;4.13;;
17854;SDS011;9053;53.358;6.382;2023-12-28T12:43:34;27.70;;;5.07;;
17854;SDS011;9053;53.358;6.382;2023-12-28T12:46:07;24.67;;;4.97;;
17854;SDS011;9053;53.358;6.382;2023-12-28T12:48:38;30.87;;;4.70;;
17854;SDS011;9053;53.358;6.382;2023-12-28T12:51:08;19.90;;;4.33;;
17854;SDS011;9053;53.358;6.382;2023-12-28T12:53:38;31.57;;;5.37;;
17854;SDS011;9053;53.358;6.382;2023-12-28T12:56:09;21.37;;;4.60;;
17854;SDS011;9053;53.358;6.382;2023-12-28T12:58:40;18.80;;;4.50;;
17854;SDS011;9053;53.358;6.382;2023-12-28T13:01:12;25.23;;;5.27;;
17854;SDS011;9053;53.358;6.382;2023-12-28T13:03:42;22.80;;;4.93;;
17854;SDS011;9053;53.358;6.382;2023-12-28T13:06:15;17.23;;;4.10;;
17854;SDS011;9053;53.358;6.382;2023-12-28T13:08:49;20.70;;;4.10;;
17854;SDS011;9053;53.358;6.382;2023-12-28T13:11:19;23.53;;;4.60;;
17854;SDS011;9053;53.358;6.382;2023-12-28T13:13:52;24.77;;;4.60;;
17854;SDS011;9053;53.358;6.382;2023-12-28T13:16:25;19.60;;;4.53;;
17854;SDS011;9053;53.358;6.382;2023-12-28T13:18:55;23.37;;;5.43;;
17854;SDS011;9053;53.358;6.382;2023-12-28T13:21:25;24.30;;;4.80;;
17854;SDS011;9053;53.358;6.382;2023-12-28T13:23:55;23.02;;;4.80;;
17854;SDS011;9053;53.358;6.382;2023-12-28T13:26:28;27.17;;;5.00;;
17854;SDS011;9053;53.358;6.382;2023-12-28T13:28:58;19.80;;;4.27;;
17854;SDS011;9053;53.358;6.382;2023-12-28T13:31:34;23.13;;;4.77;;
17854;SDS011;9053;53.358;6.382;2023-12-28T13:34:07;19.87;;;4.10;;
17854;SDS011;9053;53.358;6.382;2023-12-28T13:36:37;24.27;;;4.77;;
17854;SDS011;9053;53.358;6.382;2023-12-28T13:39:09;21.67;;;5.30;;
17854;SDS011;9053;53.358;6.382;2023-12-28T13:41:41;24.03;;;5.00;;
17854;SDS011;9053;53.358;6.382;2023-12-28T13:44:12;25.03;;;4.90;;
17854;SDS011;9053;53.358;6.382;2023-12-28T13:46:46;24.40;;;4.67;;
17854;SDS011;9053;53.358;6.382;2023-12-28T13:49:16;20.93;;;4.50;;
17854;SDS011;9053;53.358;6.382;2023-12-28T13:51:46;22.47;;;4.33;;
17854;SDS011;9053;53.358;6.382;2023-12-28T13:54:19;28.80;;;4.37;;
17854;SDS011;9053;53.358;6.382;2023-12-28T13:56:49;23.30;;;4.60;;
17854;SDS011;9053;53.358;6.382;2023-12-28T13:59:23;26.07;;;4.83;;
17854;SDS011;9053;53.358;6.382;2023-12-28T14:01:56;21.60;;;4.57;;
17854;SDS011;9053;53.358;6.382;2023-12-28T14:04:27;22.43;;;4.20;;
17854;SDS011;9053;53.358;6.382;2023-12-28T14:06:57;20.47;;;5.20;;
17854;SDS011;9053;53.358;6.382;2023-12-28T14:09:27;21.67;;;4.13;;
17854;SDS011;9053;53.358;6.382;2023-12-28T14:11:59;19.90;;;4.07;;
17854;SDS011;9053;53.358;6.382;2023-12-28T14:14:29;23.43;;;5.23;;
17854;SDS011;9053;53.358;6.382;2023-12-28T14:17:02;28.30;;;4.90;;
17854;SDS011;9053;53.358;6.382;2023-12-28T14:19:33;19.43;;;4.60;;
17854;SDS011;9053;53.358;6.382;2023-12-28T14:22:03;16.07;;;4.30;;
17854;SDS011;9053;53.358;6.382;2023-12-28T14:24:34;16.90;;;4.10;;
17854;SDS011;9053;53.358;6.382;2023-12-28T14:27:05;22.03;;;4.30;;
17854;SDS011;9053;53.358;6.382;2023-12-28T14:29:38;17.50;;;3.90;;
17854;SDS011;9053;53.358;6.382;2023-12-28T14:32:12;25.90;;;5.27;;
17854;SDS011;9053;53.358;6.382;2023-12-28T14:34:43;18.43;;;3.70;;
17854;SDS011;9053;53.358;6.382;2023-12-28T14:37:13;20.20;;;3.67;;
17854;SDS011;9053;53.358;6.382;2023-12-28T14:39:44;21.33;;;4.57;;
17854;SDS011;9053;53.358;6.382;2023-12-28T14:42:15;20.70;;;4.20;;
17854;SDS011;9053;53.358;6.382;2023-12-28T14:44:45;22.70;;;4.80;;
17854;SDS011;9053;53.358;6.382;2023-12-28T14:47:19;16.00;;;3.93;;
17854;SDS011;9053;53.358;6.382;2023-12-28T14:49:49;18.53;;;4.33;;
17854;SDS011;9053;53.358;6.382;2023-12-28T14:52:22;21.30;;;4.67;;
17854;SDS011;9053;53.358;6.382;2023-12-28T14:54:52;19.37;;;4.03;;
17854;SDS011;9053;53.358;6.382;2023-12-28T14:57:23;18.77;;;4.07;;
17854;SDS011;9053;53.358;6.382;2023-12-28T14:59:54;15.77;;;3.37;;
17854;SDS011;9053;53.358;6.382;2023-12-28T15:02:27;16.80;;;4.20;;
17854;SDS011;9053;53.358;6.382;2023-12-28T15:04:58;20.03;;;3.93;;
17854;SDS011;9053;53.358;6.382;2023-12-28T15:07:28;23.30;;;4.77;;
17854;SDS011;9053;53.358;6.382;2023-12-28T15:09:58;24.60;;;4.60;;
17854;SDS011;9053;53.358;6.382;2023-12-28T15:12:30;19.27;;;4.70;;
17854;SDS011;9053;53.358;6.382;2023-12-28T15:15:01;17.90;;;4.07;;